Time;durP1;ratioP1;P1;durP2;ratioP2;P2;SDS_P1;SDS_P2;PMS_P1;PMS_P2;Temp;Humidity;BMP_temperature;BMP_pressure;BME280_temperature;BME280_humidity;BME280_pressure;Samples;Min_cycle;Max_cycle;Signal;HPM_P1;HPM_P2
2021/01/17 00:00:21;;;;;;;16.93;9.43;;;-5.50;99.90;;;;;;4973503;28;20110;-82
2021/01/17 00:02:48;;;;;;;26.70;12.23;;;-5.50;99.90;;;;;;4974557;28;20015;-82
2021/01/17 00:05:22;;;;;;;12.95;6.38;;;-5.50;99.90;;;;;;4992366;28;20019;-84
2021/01/17 00:07:49;;;;;;;14.63;6.97;;;-5.60;99.90;;;;;;4976063;28;20033;-84
2021/01/17 00:10:35;;;;;;;8.93;5.88;;;-5.90;99.90;;;;;;4977173;28;20033;-84
2021/01/17 00:13:02;;;;;;;14.00;7.33;;;-5.90;99.90;;;;;;4975647;28;20085;-84
2021/01/17 00:15:28;;;;;;;18.70;8.03;;;-5.90;99.90;;;;;;4976850;28;20123;-84
2021/01/17 00:17:54;;;;;;;14.63;6.93;;;-6.00;99.90;;;;;;4976923;28;20045;-84
2021/01/17 00:20:22;;;;;;;11.03;5.63;;;-6.00;99.90;;;;;;4989102;28;20464;-85
2021/01/17 00:22:48;;;;;;;11.37;6.70;;;-6.20;99.90;;;;;;4993501;28;20019;-84
2021/01/17 00:25:17;;;;;;;9.33;5.43;;;-6.20;99.90;;;;;;4996229;28;20069;-84
2021/01/17 00:27:43;;;;;;;12.53;7.20;;;-6.30;99.90;;;;;;4994991;28;20033;-84
2021/01/17 00:30:12;;;;;;;9.43;5.97;;;-6.50;99.90;;;;;;4994825;28;20015;-84
2021/01/17 00:32:38;;;;;;;9.77;5.87;;;-6.50;99.90;;;;;;4996085;28;20109;-84
2021/01/17 00:35:06;;;;;;;8.67;5.47;;;-6.60;99.90;;;;;;4995913;28;20105;-84
2021/01/17 00:37:32;;;;;;;12.63;5.97;;;-6.60;99.90;;;;;;4995883;28;20022;-84
2021/01/17 00:39:58;;;;;;;9.60;5.43;;;-6.70;99.90;;;;;;4994887;28;20091;-84
2021/01/17 00:42:23;;;;;;;10.83;5.73;;;-6.80;99.90;;;;;;4993283;28;20174;-84
2021/01/17 00:44:50;;;;;;;10.00;6.30;;;-6.80;99.90;;;;;;4975316;28;20023;-84
2021/01/17 00:47:16;;;;;;;5.93;4.70;;;-6.90;99.90;;;;;;4976339;28;20042;-84
2021/01/17 00:49:45;;;;;;;17.83;8.33;;;-7.00;99.90;;;;;;4975398;28;20109;-84
2021/01/17 00:52:28;;;;;;;23.87;10.23;;;-7.10;99.90;;;;;;4974984;28;20030;-84
2021/01/17 00:54:54;;;;;;;18.13;7.40;;;-7.20;99.90;;;;;;4975276;28;20537;-84
2021/01/17 00:57:20;;;;;;;53.83;17.90;;;-7.30;99.90;;;;;;4976442;28;20125;-84
2021/01/17 00:59:45;;;;;;;9.87;6.63;;;-7.30;99.90;;;;;;4991370;28;20026;-84
2021/01/17 01:02:11;;;;;;;26.50;10.50;;;-7.40;99.90;;;;;;4991178;28;20162;-84
2021/01/17 01:04:36;;;;;;;9.33;6.03;;;-7.40;99.90;;;;;;4975338;28;20030;-84
2021/01/17 01:07:03;;;;;;;17.60;8.10;;;-7.40;99.90;;;;;;4974868;28;20460;-84
2021/01/17 01:09:28;;;;;;;20.13;7.67;;;-7.40;99.90;;;;;;4989047;28;20113;-84
2021/01/17 01:11:54;;;;;;;33.10;13.43;;;-7.50;99.90;;;;;;4992841;28;20106;-84
2021/01/17 01:14:20;;;;;;;17.20;7.70;;;-7.50;99.90;;;;;;4999324;28;20019;-84
2021/01/17 01:16:53;;;;;;;13.07;7.90;;;-7.50;99.90;;;;;;4980753;28;20049;-84
2021/01/17 01:19:19;;;;;;;18.20;9.60;;;-7.50;99.90;;;;;;4976928;28;20019;-84
2021/01/17 01:21:45;;;;;;;15.97;9.07;;;-7.50;99.90;;;;;;4975869;28;20027;-84
2021/01/17 01:24:12;;;;;;;17.50;7.87;;;-7.50;99.90;;;;;;4979098;28;20461;-84
2021/01/17 01:26:42;;;;;;;19.93;8.80;;;-7.60;99.90;;;;;;4974767;28;20067;-84
2021/01/17 01:29:09;;;;;;;18.23;8.43;;;-7.60;99.90;;;;;;4974186;28;20031;-85
2021/01/17 01:31:36;;;;;;;23.37;9.93;;;-7.50;99.90;;;;;;4974217;28;20011;-85
2021/01/17 01:34:06;;;;;;;17.40;7.27;;;-7.70;99.90;;;;;;4975511;28;20023;-85
2021/01/17 01:36:35;;;;;;;22.83;8.67;;;-7.80;99.90;;;;;;4975480;28;20109;-84
2021/01/17 01:39:00;;;;;;;29.40;11.53;;;-7.90;99.90;;;;;;4974408;28;20028;-84
2021/01/17 01:41:28;;;;;;;24.17;10.13;;;-7.90;99.90;;;;;;4975431;28;20519;-84
2021/01/17 01:43:54;;;;;;;24.27;12.57;;;-8.00;99.90;;;;;;4975378;28;20019;-83
2021/01/17 01:46:25;;;;;;;31.27;12.30;;;-8.10;99.90;;;;;;4975372;28;20366;-83
2021/01/17 01:48:52;;;;;;;29.00;13.73;;;-8.00;99.90;;;;;;4975269;28;20435;-83
2021/01/17 01:51:22;;;;;;;27.40;11.37;;;-8.00;99.90;;;;;;4974893;28;20143;-84
2021/01/17 01:53:51;;;;;;;24.33;11.70;;;-8.00;99.90;;;;;;4998672;28;20121;-83
2021/01/17 01:56:17;;;;;;;17.13;9.23;;;-8.00;99.90;;;;;;5009607;28;20491;-84
2021/01/17 01:58:43;;;;;;;15.93;8.53;;;-8.10;99.90;;;;;;4994520;28;20037;-83
2021/01/17 02:01:09;;;;;;;19.27;9.80;;;-8.20;99.90;;;;;;4992950;28;20053;-84
2021/01/17 02:03:35;;;;;;;17.07;9.10;;;-8.40;99.90;;;;;;4994715;28;20022;-84
2021/01/17 02:06:10;;;;;;;16.20;9.37;;;-8.50;99.90;;;;;;4993433;28;20022;-84
2021/01/17 02:09:03;;;;;;;19.13;8.33;;;-8.60;99.90;;;;;;5009652;28;20101;-84
2021/01/17 02:11:53;;;;;;;10.87;6.07;;;-8.70;99.90;;;;;;4993322;28;20035;-84
2021/01/17 02:14:31;;;;;;;20.10;9.00;;;-8.80;99.90;;;;;;4990061;28;20023;-84
2021/01/17 02:16:59;;;;;;;16.30;7.10;;;-8.80;99.90;;;;;;4973452;28;20070;-84
2021/01/17 02:19:31;;;;;;;15.47;8.20;;;-8.90;99.90;;;;;;4973681;28;20073;-83
2021/01/17 02:21:58;;;;;;;19.57;8.03;;;-9.00;99.90;;;;;;4973105;28;20019;-83
2021/01/17 02:24:32;;;;;;;19.97;9.20;;;-8.90;99.90;;;;;;4973369;28;20503;-83
2021/01/17 02:27:00;;;;;;;13.43;7.83;;;-9.00;99.80;;;;;;4974442;28;20031;-84
2021/01/17 02:29:27;;;;;;;15.10;8.37;;;-9.10;98.90;;;;;;4974512;28;20033;-84
2021/01/17 02:31:57;;;;;;;14.43;7.83;;;-9.10;98.30;;;;;;4973341;28;20106;-84
2021/01/17 02:34:28;;;;;;;13.07;7.43;;;-9.20;99.50;;;;;;4973524;28;20027;-83
2021/01/17 02:37:34;;;;;;;16.30;7.63;;;-9.30;99.50;;;;;;4973516;28;20528;-84
2021/01/17 02:40:29;;;;;;;16.40;9.13;;;-9.30;99.80;;;;;;4963203;28;20045;-83
2021/01/17 02:42:57;;;;;;;22.80;9.97;;;-9.30;99.90;;;;;;4992395;28;20069;-83
2021/01/17 02:45:23;;;;;;;18.27;7.80;;;-9.20;99.30;;;;;;4991038;28;20022;-84
2021/01/17 02:47:49;;;;;;;11.60;8.03;;;-9.30;98.70;;;;;;4994030;28;20503;-84
2021/01/17 02:50:14;;;;;;;19.40;8.37;;;-9.40;97.20;;;;;;4994245;28;20388;-84
2021/01/17 02:52:52;;;;;;;14.00;6.10;;;-9.40;96.20;;;;;;4994308;28;20026;-84
2021/01/17 02:55:19;;;;;;;8.83;6.20;;;-9.50;95.10;;;;;;4992812;28;20030;-83
2021/01/17 02:57:48;;;;;;;16.77;7.73;;;-9.60;95.00;;;;;;4992060;28;20113;-83
2021/01/17 03:00:17;;;;;;;13.13;7.23;;;-9.60;95.30;;;;;;4992559;28;20377;-83
2021/01/17 03:02:44;;;;;;;10.93;8.17;;;-9.70;94.10;;;;;;4992499;28;20109;-83
2021/01/17 03:05:14;;;;;;;13.93;7.70;;;-9.70;93.30;;;;;;4992452;28;20058;-83
2021/01/17 03:07:40;;;;;;;20.33;8.57;;;-9.80;94.30;;;;;;4992100;28;20030;-83
2021/01/17 03:10:08;;;;;;;21.97;9.17;;;-9.80;94.70;;;;;;4992611;28;20033;-83
2021/01/17 03:12:34;;;;;;;10.87;6.77;;;-9.80;94.40;;;;;;4992327;28;20026;-83
2021/01/17 03:15:03;;;;;;;18.80;7.47;;;-9.90;94.90;;;;;;4992171;28;20026;-83
2021/01/17 03:17:29;;;;;;;12.37;7.07;;;-9.90;95.10;;;;;;5008836;28;20033;-83
2021/01/17 03:19:54;;;;;;;8.47;5.20;;;-9.90;96.10;;;;;;4992229;28;20480;-83
2021/01/17 03:22:20;;;;;;;11.93;6.63;;;-9.90;96.70;;;;;;4992288;28;20024;-83
2021/01/17 03:24:46;;;;;;;20.80;10.27;;;-9.90;97.50;;;;;;4993562;28;20041;-83
2021/01/17 03:27:12;;;;;;;22.67;8.73;;;-9.90;98.50;;;;;;5008551;28;20514;-83
2021/01/17 03:29:37;;;;;;;17.53;7.70;;;-10.00;99.70;;;;;;4993501;28;20454;-83
2021/01/17 03:32:03;;;;;;;16.43;8.07;;;-10.10;98.10;;;;;;4993471;28;20038;-83
2021/01/17 03:34:29;;;;;;;29.30;14.80;;;-10.10;97.90;;;;;;4993167;28;20160;-83
2021/01/17 03:36:54;;;;;;;23.07;9.53;;;-10.30;98.70;;;;;;4985798;28;20038;-83
2021/01/17 03:39:20;;;;;;;21.53;7.77;;;-10.40;99.90;;;;;;4977546;28;20170;-82
2021/01/17 03:41:46;;;;;;;12.73;8.93;;;-10.40;99.90;;;;;;4976781;28;20030;-83
2021/01/17 03:44:12;;;;;;;21.03;10.30;;;-10.50;99.90;;;;;;4976586;28;20026;-82
2021/01/17 03:46:37;;;;;;;14.93;9.30;;;-10.50;99.90;;;;;;4992862;28;20082;-82
2021/01/17 03:49:03;;;;;;;22.73;10.00;;;-10.50;99.90;;;;;;4976886;28;20113;-83
2021/01/17 03:51:29;;;;;;;43.20;13.73;;;-10.60;99.90;;;;;;4993044;28;20033;-83
2021/01/17 03:53:54;;;;;;;19.80;10.83;;;-10.70;99.90;;;;;;4977741;28;20027;-83
2021/01/17 03:56:20;;;;;;;28.77;10.53;;;-10.70;99.90;;;;;;4975702;28;20042;-83
2021/01/17 03:58:46;;;;;;;13.27;8.73;;;-10.60;99.90;;;;;;4976424;28;20031;-83
2021/01/17 04:01:11;;;;;;;18.80;8.63;;;-10.60;99.90;;;;;;4976305;28;20026;-83
2021/01/17 04:03:38;;;;;;;15.57;8.27;;;-10.50;99.60;;;;;;4976794;28;20490;-83
2021/01/17 04:06:04;;;;;;;21.20;12.37;;;-10.60;98.30;;;;;;4995659;28;20112;-83
2021/01/17 04:08:30;;;;;;;25.60;8.97;;;-10.60;98.60;;;;;;4995649;28;20019;-83
2021/01/17 04:10:56;;;;;;;19.20;9.37;;;-10.60;98.70;;;;;;4995661;28;20026;-83
2021/01/17 04:13:21;;;;;;;21.90;11.73;;;-10.50;98.60;;;;;;4997107;28;20028;-83
2021/01/17 04:15:48;;;;;;;21.93;9.50;;;-10.60;98.10;;;;;;4995882;28;20050;-83
2021/01/17 04:18:13;;;;;;;34.07;12.70;;;-10.70;97.60;;;;;;4995509;28;20100;-83
2021/01/17 04:20:41;;;;;;;22.90;10.57;;;-10.60;97.90;;;;;;4996876;28;20369;-83
2021/01/17 04:23:07;;;;;;;20.50;9.77;;;-10.70;97.50;;;;;;4995357;28;20019;-83
2021/01/17 04:25:33;;;;;;;21.53;9.93;;;-10.70;98.50;;;;;;4987843;28;20122;-83
2021/01/17 04:27:59;;;;;;;20.83;9.37;;;-10.70;99.20;;;;;;4975977;28;20086;-83
2021/01/17 04:30:30;;;;;;;19.60;9.20;;;-10.70;99.30;;;;;;4975809;28;20023;-82
2021/01/17 04:32:56;;;;;;;14.97;8.47;;;-10.80;99.70;;;;;;4991827;28;20027;-83
2021/01/17 04:35:22;;;;;;;17.37;7.80;;;-10.80;99.90;;;;;;4976994;28;20492;-83
2021/01/17 04:37:48;;;;;;;16.13;8.33;;;-10.80;99.90;;;;;;4976991;28;20023;-83
2021/01/17 04:40:14;;;;;;;22.63;11.57;;;-10.90;99.90;;;;;;4991858;28;20465;-81
2021/01/17 04:42:47;;;;;;;12.27;7.60;;;-10.90;99.90;;;;;;4975655;28;20512;-82
2021/01/17 04:45:16;;;;;;;19.47;8.50;;;-10.90;99.90;;;;;;4975632;28;20062;-82
2021/01/17 04:47:45;;;;;;;11.17;7.23;;;-11.00;99.90;;;;;;4975604;28;20127;-82
2021/01/17 04:50:12;;;;;;;24.27;10.63;;;-11.00;99.90;;;;;;4976574;28;20026;-82
2021/01/17 04:52:46;;;;;;;14.43;8.83;;;-11.00;99.90;;;;;;4979932;28;20035;-82
2021/01/17 04:55:13;;;;;;;21.07;10.07;;;-11.00;99.90;;;;;;4996041;28;20448;-82
2021/01/17 04:57:54;;;;;;;20.63;10.93;;;-11.10;99.90;;;;;;5011187;28;20400;-82
2021/01/17 05:00:31;;;;;;;18.60;9.97;;;-11.10;99.90;;;;;;4994752;28;20030;-82
2021/01/17 05:03:14;;;;;;;16.67;9.03;;;-11.10;99.90;;;;;;4995948;28;20029;-82
2021/01/17 05:05:52;;;;;;;13.88;8.93;;;-11.00;99.90;;;;;;4996095;28;20062;-83
2021/01/17 05:08:31;;;;;;;19.53;10.60;;;-11.00;99.90;;;;;;4994554;28;20018;-83
2021/01/17 05:11:03;;;;;;;17.93;9.97;;;-11.00;99.90;;;;;;4995929;28;20035;-82
2021/01/17 05:13:48;;;;;;;17.13;9.57;;;-10.90;99.90;;;;;;5010808;28;20030;-83
2021/01/17 05:16:15;;;;;;;15.07;9.17;;;-10.90;99.90;;;;;;4994478;28;20048;-82
2021/01/17 05:18:47;;;;;;;21.47;10.40;;;-11.00;99.90;;;;;;4995669;28;20023;-82
2021/01/17 05:21:19;;;;;;;;;;;-11.00;99.90;;;;;;4986522;28;20503;-83
2021/01/17 05:23:47;;;;;;;23.87;12.10;;;-10.90;99.90;;;;;;4976273;28;19906;-83
2021/01/17 05:26:13;;;;;;;18.33;9.00;;;-10.90;99.90;;;;;;4976138;28;20023;-83
2021/01/17 05:28:39;;;;;;;17.63;10.40;;;-11.00;99.90;;;;;;4974755;28;20110;-83
2021/01/17 05:31:05;;;;;;;15.53;8.93;;;-11.00;99.90;;;;;;4975630;28;20106;-83
2021/01/17 05:33:32;;;;;;;21.33;10.13;;;-10.90;99.90;;;;;;4990926;28;20027;-83
2021/01/17 05:36:01;;;;;;;24.10;10.03;;;-10.90;99.90;;;;;;4976217;28;20027;-83
2021/01/17 05:38:27;;;;;;;17.73;10.30;;;-10.80;99.90;;;;;;4974563;28;20117;-83
2021/01/17 05:40:53;;;;;;;51.80;20.27;;;-10.80;99.90;;;;;;4975957;28;20065;-83
2021/01/17 05:43:19;;;;;;;30.97;12.63;;;-10.80;99.90;;;;;;4975813;28;20083;-83
2021/01/17 05:45:45;;;;;;;32.80;12.87;;;-10.80;99.90;;;;;;4975826;28;20027;-83
2021/01/17 05:48:12;;;;;;;57.27;20.57;;;-10.80;99.90;;;;;;4981197;28;20022;-83
2021/01/17 05:50:43;;;;;;;23.73;11.47;;;-10.90;99.90;;;;;;4993530;28;20038;-83
2021/01/17 05:53:09;;;;;;;46.37;18.07;;;-10.90;99.90;;;;;;4994754;28;20026;-83
2021/01/17 05:55:40;;;;;;;25.90;11.70;;;-10.90;99.90;;;;;;4977983;28;20496;-82
2021/01/17 05:58:24;;;;;;;35.17;14.57;;;-10.90;99.90;;;;;;4974210;28;20050;-83
2021/01/17 06:01:00;;;;;;;43.17;17.07;;;-10.80;99.90;;;;;;4974932;28;20469;-83
2021/01/17 06:03:33;;;;;;;37.73;14.93;;;-10.70;99.90;;;;;;4974149;28;20042;-83
2021/01/17 06:06:05;;;;;;;26.73;13.83;;;-10.70;96.90;;;;;;4974147;28;20034;-82
2021/01/17 06:08:31;;;;;;;39.97;15.00;;;-10.80;94.70;;;;;;4975301;28;20115;-82
2021/01/17 06:11:08;;;;;;;32.40;14.17;;;-10.70;95.00;;;;;;4990241;28;20027;-82
2021/01/17 06:13:37;;;;;;;31.60;14.27;;;-10.80;94.20;;;;;;4975150;28;20027;-83
2021/01/17 06:16:19;;;;;;;32.20;15.23;;;-10.70;94.30;;;;;;4973854;28;20515;-83
2021/01/17 06:18:53;;;;;;;17.92;9.80;;;-10.70;95.40;;;;;;4975193;28;20022;-83
2021/01/17 06:21:19;;;;;;;18.20;8.47;;;-10.70;93.00;;;;;;4978041;28;20447;-83
2021/01/17 06:23:54;;;;;;;19.43;8.17;;;-10.80;91.80;;;;;;4973786;28;20114;-83
2021/01/17 06:26:24;;;;;;;22.77;8.87;;;-10.80;92.30;;;;;;4973684;28;20022;-82
2021/01/17 06:28:50;;;;;;;12.77;7.07;;;-10.80;91.40;;;;;;4974981;28;20484;-82
2021/01/17 06:31:22;;;;;;;16.33;8.43;;;-10.90;91.00;;;;;;4973603;28;20029;-83
2021/01/17 06:33:50;;;;;;;18.93;7.80;;;-10.90;91.40;;;;;;4973187;28;20030;-83
2021/01/17 06:36:17;;;;;;;23.50;12.47;;;-10.90;91.20;;;;;;4990003;28;20428;-82
2021/01/17 06:38:44;;;;;;;42.87;15.70;;;-10.90;92.60;;;;;;4994316;28;20088;-82
2021/01/17 06:41:11;;;;;;;26.00;11.67;;;-10.80;92.20;;;;;;4992874;28;20113;-82
2021/01/17 06:43:43;;;;;;;19.23;10.40;;;-10.90;91.80;;;;;;4991005;28;20022;-82
2021/01/17 06:46:10;;;;;;;26.13;12.60;;;-10.90;92.40;;;;;;5012426;28;20025;-83
2021/01/17 06:48:36;;;;;;;28.13;10.63;;;-10.90;93.50;;;;;;4990960;28;20340;-83
2021/01/17 06:51:20;;;;;;;28.83;13.30;;;-10.90;93.40;;;;;;4973895;28;20022;-82
2021/01/17 06:53:54;;;;;;;42.90;15.43;;;-10.90;92.50;;;;;;4986353;28;20463;-83
2021/01/17 06:56:20;;;;;;;23.20;9.50;;;-11.00;93.60;;;;;;4989906;28;20042;-83
2021/01/17 06:58:47;;;;;;;26.80;10.37;;;-11.10;93.00;;;;;;4992204;28;20018;-83
2021/01/17 07:01:14;;;;;;;24.27;11.77;;;-11.10;92.80;;;;;;5007789;28;20361;-84
2021/01/17 07:04:15;;;;;;;20.90;9.60;;;-11.10;90.70;;;;;;4991510;28;20073;-83
2021/01/17 07:07:06;;;;;;;23.43;10.60;;;-11.00;89.90;;;;;;4990007;28;20034;-84
2021/01/17 07:09:37;;;;;;;20.73;10.33;;;-11.10;90.90;;;;;;5005401;28;20129;-83
2021/01/17 07:12:23;;;;;;;53.78;20.77;;;-11.10;90.50;;;;;;4989595;28;20030;-84
2021/01/17 07:15:15;;;;;;;20.73;10.50;;;-11.20;90.70;;;;;;4991670;28;20173;-83
2021/01/17 07:17:42;;;;;;;26.77;11.07;;;-11.20;91.00;;;;;;4990566;28;20035;-82
2021/01/17 07:20:12;;;;;;;16.50;8.53;;;-11.20;91.40;;;;;;4992205;28;20050;-83
2021/01/17 07:22:39;;;;;;;32.97;13.63;;;-11.30;91.60;;;;;;5006328;28;20026;-83
2021/01/17 07:25:09;;;;;;;34.37;12.07;;;-11.30;91.10;;;;;;4992587;28;20022;-83
2021/01/17 07:27:56;;;;;;;30.47;12.87;;;-11.30;91.00;;;;;;4991163;28;20023;-81
2021/01/17 07:30:35;;;;;;;22.10;11.50;;;-11.30;91.40;;;;;;5006658;28;20387;-83
2021/01/17 07:33:06;;;;;;;29.87;13.07;;;-11.30;89.00;;;;;;5001472;28;20022;-83
2021/01/17 07:35:40;;;;;;;35.77;11.47;;;-11.20;89.00;;;;;;4990528;28;20110;-84
2021/01/17 07:38:24;;;;;;;40.03;15.87;;;-11.20;89.00;;;;;;4988916;28;20435;-85
2021/01/17 07:40:56;;;;;;;34.50;14.07;;;-11.10;88.20;;;;;;4990043;28;20392;-82
2021/01/17 07:43:29;;;;;;;33.22;14.55;;;-11.00;87.90;;;;;;4992875;28;20102;-81
2021/01/17 07:46:11;;;;;;;182.85;69.00;;;-10.90;86.90;;;;;;4887455;28;20039;-82
2021/01/17 07:48:37;;;;;;;;;;;-10.80;85.50;;;;;;5000615;28;20030;-82
2021/01/17 07:51:09;;;;;;;89.83;28.23;;;-10.70;84.70;;;;;;5013236;28;19910;-81
2021/01/17 07:53:42;;;;;;;213.57;62.33;;;-10.70;82.80;;;;;;4999630;28;20054;-82
2021/01/17 07:56:15;;;;;;;149.83;44.47;;;-10.70;82.20;;;;;;4990288;28;20042;-82
2021/01/17 07:58:47;;;;;;;170.13;49.37;;;-10.70;81.80;;;;;;4991906;28;20030;-82
2021/01/17 08:01:31;;;;;;;151.13;49.28;;;-10.60;81.40;;;;;;4992442;28;20034;-83
2021/01/17 08:04:16;;;;;;;168.57;51.30;;;-10.60;81.00;;;;;;4993694;28;20038;-81
2021/01/17 08:06:41;;;;;;;175.13;55.47;;;-10.60;80.70;;;;;;4995484;28;20488;-81
2021/01/17 08:09:08;;;;;;;144.10;42.57;;;-10.50;80.80;;;;;;4992612;28;20057;-81
2021/01/17 08:11:56;;;;;;;171.73;51.70;;;-10.60;80.60;;;;;;4996513;28;20030;-81
2021/01/17 08:14:32;;;;;;;210.73;62.23;;;-10.60;81.20;;;;;;5001327;28;20022;-80
2021/01/17 08:17:17;;;;;;;106.30;43.23;;;-10.50;82.10;;;;;;5002943;28;20034;-80
2021/01/17 08:20:02;;;;;;;73.67;26.97;;;-10.60;82.10;;;;;;4999200;28;20025;-80
2021/01/17 08:22:28;;;;;;;155.90;45.97;;;-10.60;80.40;;;;;;5012472;28;20026;-81
2021/01/17 08:24:58;;;;;;;186.33;53.60;;;-10.60;81.00;;;;;;5001645;28;20031;-81
2021/01/17 08:27:38;;;;;;;110.93;36.77;;;-10.60;80.80;;;;;;4994687;28;20019;-81
2021/01/17 08:30:07;;;;;;;97.50;32.67;;;-10.60;81.50;;;;;;4995183;28;20130;-81
2021/01/17 08:32:42;;;;;;;47.53;21.00;;;-10.50;81.00;;;;;;4998346;28;20026;-81
2021/01/17 08:35:20;;;;;;;42.77;17.63;;;-10.30;81.00;;;;;;5001340;28;20030;-80
2021/01/17 08:38:10;;;;;;;57.27;21.23;;;-10.20;78.60;;;;;;5003200;28;20042;-80
2021/01/17 08:40:35;;;;;;;82.20;28.47;;;-10.20;77.60;;;;;;4994556;28;20038;-81
2021/01/17 08:43:06;;;;;;;66.03;22.33;;;-10.20;77.10;;;;;;4994988;28;20404;-81
2021/01/17 08:45:46;;;;;;;40.90;17.33;;;-10.30;76.60;;;;;;4993686;28;20030;-81
2021/01/17 08:48:17;;;;;;;36.77;15.37;;;-10.20;77.00;;;;;;5010429;28;20037;-81
2021/01/17 08:50:47;;;;;;;40.87;14.03;;;-10.20;75.70;;;;;;4994757;28;20030;-80
2021/01/17 08:53:23;;;;;;;32.33;16.23;;;-10.30;74.60;;;;;;5010383;28;20034;-81
2021/01/17 08:55:49;;;;;;;64.47;24.00;;;-10.30;74.20;;;;;;4995285;28;20053;-81
2021/01/17 08:58:25;;;;;;;49.67;18.80;;;-10.20;74.40;;;;;;4991500;28;20026;-81
2021/01/17 09:00:51;;;;;;;43.93;18.27;;;-10.00;75.00;;;;;;5001628;28;20034;-81
2021/01/17 09:03:30;;;;;;;47.63;21.00;;;-10.10;73.20;;;;;;4995691;28;20035;-81
2021/01/17 09:06:05;;;;;;;53.83;25.03;;;-10.10;73.40;;;;;;4993696;28;20072;-82
2021/01/17 09:08:33;;;;;;;72.30;26.17;;;-9.90;72.80;;;;;;4992949;28;20117;-83
2021/01/17 09:11:00;;;;;;;64.33;24.13;;;-9.90;72.60;;;;;;4990903;28;20030;-81
2021/01/17 09:13:32;;;;;;;40.07;17.67;;;-9.70;73.10;;;;;;4991416;28;20018;-84
2021/01/17 09:16:01;;;;;;;31.02;15.55;;;-9.60;71.60;;;;;;4995649;28;20046;-81
2021/01/17 09:18:35;;;;;;;75.30;33.27;;;-9.50;71.10;;;;;;4995497;28;20037;-82
2021/01/17 09:21:01;;;;;;;38.73;15.93;;;-9.40;70.70;;;;;;4993642;28;20030;-83
2021/01/17 09:23:27;;;;;;;45.57;18.93;;;-9.30;69.80;;;;;;4994586;28;20033;-80
2021/01/17 09:25:58;;;;;;;41.60;18.70;;;-9.20;70.00;;;;;;4994130;28;20025;-82
2021/01/17 09:28:24;;;;;;;37.87;18.20;;;-9.20;68.90;;;;;;4999655;28;20018;-81
2021/01/17 09:30:56;;;;;;;38.50;18.03;;;-9.20;69.70;;;;;;4991212;28;20029;-81
2021/01/17 09:33:22;;;;;;;33.77;14.93;;;-9.00;69.60;;;;;;4992501;28;20034;-81
2021/01/17 09:35:49;;;;;;;43.00;19.47;;;-9.00;68.40;;;;;;4992709;28;20554;-82
2021/01/17 09:38:19;;;;;;;42.10;16.30;;;-8.70;68.60;;;;;;4994327;28;20053;-81
2021/01/17 09:40:52;;;;;;;29.47;14.63;;;-8.40;67.50;;;;;;4995704;28;20023;-81
2021/01/17 09:43:18;;;;;;;45.35;19.92;;;-8.20;65.70;;;;;;4995312;28;20386;-81
2021/01/17 09:45:53;;;;;;;48.83;22.77;;;-8.00;65.30;;;;;;4990865;28;20909;-83
2021/01/17 09:48:21;;;;;;;40.80;19.93;;;-7.90;64.40;;;;;;4990353;28;20022;-82
2021/01/17 09:50:47;;;;;;;30.23;14.13;;;-7.90;63.90;;;;;;4991765;28;20022;-82
2021/01/17 09:53:13;;;;;;;29.37;12.70;;;-8.10;62.00;;;;;;4993979;28;20030;-81
2021/01/17 09:55:41;;;;;;;33.73;13.43;;;-8.10;62.00;;;;;;4957783;28;20104;-82
2021/01/17 09:58:09;;;;;;;26.57;12.90;;;-8.00;62.00;;;;;;4993291;28;20484;-82
2021/01/17 10:00:35;;;;;;;37.23;14.70;;;-8.20;60.80;;;;;;4993669;28;20026;-81
2021/01/17 10:03:12;;;;;;;32.63;14.03;;;-8.20;61.10;;;;;;4990890;28;20027;-81
2021/01/17 10:05:38;;;;;;;54.37;21.57;;;-8.00;60.10;;;;;;4973210;28;20504;-81
2021/01/17 10:08:10;;;;;;;71.87;29.67;;;-7.90;59.60;;;;;;4973658;28;20023;-83
2021/01/17 10:10:38;;;;;;;69.47;31.02;;;-7.90;59.70;;;;;;4986119;28;20083;-82
2021/01/17 10:13:05;;;;;;;41.23;17.47;;;-7.60;60.30;;;;;;4993823;28;20034;-81
2021/01/17 10:15:31;;;;;;;28.57;13.03;;;-7.50;58.50;;;;;;4992208;28;20045;-81
2021/01/17 10:17:57;;;;;;;30.17;12.70;;;-7.50;57.20;;;;;;4998215;28;20023;-81
2021/01/17 10:20:27;;;;;;;29.80;12.50;;;-7.20;57.10;;;;;;4989777;28;20018;-81
2021/01/17 10:23:00;;;;;;;28.97;12.23;;;-7.00;57.60;;;;;;5011493;28;20026;-81
2021/01/17 10:25:27;;;;;;;26.37;13.40;;;-6.90;57.70;;;;;;5013209;28;20029;-84
2021/01/17 10:28:02;;;;;;;30.90;14.27;;;-7.00;57.10;;;;;;5008051;28;20361;-83
2021/01/17 10:30:29;;;;;;;22.20;12.43;;;-7.10;58.00;;;;;;4998358;28;20042;-83
2021/01/17 10:33:12;;;;;;;30.77;13.17;;;-7.20;57.20;;;;;;4995214;28;20022;-83
2021/01/17 10:35:41;;;;;;;33.70;14.82;;;-7.00;57.30;;;;;;4998241;28;20049;-83
2021/01/17 10:38:09;;;;;;;47.87;17.33;;;-7.00;56.80;;;;;;4996757;28;20109;-84
2021/01/17 10:40:35;;;;;;;56.70;25.17;;;-6.90;57.10;;;;;;4990897;28;20488;-83
2021/01/17 10:43:05;;;;;;;36.50;17.50;;;-7.10;57.10;;;;;;4992076;28;20025;-83
2021/01/17 10:45:31;;;;;;;31.13;14.90;;;-7.40;57.40;;;;;;4988770;28;20116;-83
2021/01/17 10:48:07;;;;;;;27.73;12.07;;;-7.70;57.80;;;;;;4991656;28;20018;-83
2021/01/17 10:50:53;;;;;;;32.00;13.60;;;-7.80;58.60;;;;;;4990342;28;20022;-83
2021/01/17 10:53:27;;;;;;;35.03;14.20;;;-7.90;59.40;;;;;;4989753;28;20023;-82
2021/01/17 10:55:55;;;;;;;34.20;14.50;;;-8.00;59.40;;;;;;5005953;28;20128;-82
2021/01/17 10:58:24;;;;;;;26.60;14.17;;;-8.10;60.00;;;;;;4991638;28;20046;-82
2021/01/17 11:00:56;;;;;;;40.13;15.03;;;-8.20;59.90;;;;;;4988706;28;20056;-82
2021/01/17 11:03:33;;;;;;;40.30;14.90;;;-7.90;60.40;;;;;;4989093;28;20114;-82
2021/01/17 11:06:07;;;;;;;28.27;11.97;;;-7.90;59.20;;;;;;4988441;28;20113;-83
2021/01/17 11:08:39;;;;;;;43.27;16.40;;;-8.00;58.70;;;;;;4987587;28;20025;-84
2021/01/17 11:11:05;;;;;;;31.58;12.90;;;-7.80;59.00;;;;;;4989441;28;20027;-83
2021/01/17 11:13:30;;;;;;;42.60;16.27;;;-7.80;58.40;;;;;;4988608;28;20037;-83
2021/01/17 11:15:56;;;;;;;57.17;23.97;;;-7.50;58.90;;;;;;4987608;28;20038;-83
2021/01/17 11:18:22;;;;;;;60.63;25.77;;;-7.30;58.60;;;;;;4987602;28;20034;-83
2021/01/17 11:20:55;;;;;;;48.30;19.50;;;-7.10;57.30;;;;;;4989532;28;20487;-84
2021/01/17 11:23:23;;;;;;;42.10;17.33;;;-6.70;57.30;;;;;;4989546;28;20046;-84
2021/01/17 11:26:09;;;;;;;46.00;17.33;;;-6.30;57.20;;;;;;4962015;28;20054;-81
2021/01/17 11:28:35;;;;;;;34.57;15.23;;;-6.40;55.70;;;;;;4969228;28;20089;-81
2021/01/17 11:31:20;;;;;;;33.50;14.53;;;-6.50;55.70;;;;;;4966448;28;20077;-85
2021/01/17 11:33:49;;;;;;;44.53;18.80;;;-7.10;56.80;;;;;;4971448;28;20031;-84
2021/01/17 11:36:22;;;;;;;29.90;13.23;;;-7.50;57.60;;;;;;4969535;28;20065;-84
2021/01/17 11:38:53;;;;;;;34.40;14.67;;;-7.90;58.00;;;;;;4971705;28;20050;-83
2021/01/17 11:41:20;;;;;;;35.70;15.33;;;-8.00;57.90;;;;;;4968958;28;20439;-84
2021/01/17 11:43:46;;;;;;;35.70;14.17;;;-8.10;58.60;;;;;;4968150;28;20026;-83
2021/01/17 11:46:13;;;;;;;34.47;15.00;;;-8.30;58.80;;;;;;4969079;28;20034;-83
2021/01/17 11:48:41;;;;;;;36.87;16.90;;;-8.20;59.20;;;;;;4969337;28;20551;-83
2021/01/17 11:51:08;;;;;;;35.23;15.43;;;-8.30;59.40;;;;;;4969876;28;20019;-83
2021/01/17 11:53:34;;;;;;;28.03;14.17;;;-8.30;59.50;;;;;;4969092;28;20038;-83
2021/01/17 11:56:00;;;;;;;37.77;12.90;;;-8.20;59.40;;;;;;4983874;28;20031;-83
2021/01/17 11:58:29;;;;;;;37.67;15.83;;;-8.20;59.30;;;;;;4982369;28;20034;-83
2021/01/17 12:01:00;;;;;;;250.73;90.63;;;-8.00;59.40;;;;;;4971446;28;20082;-84
2021/01/17 12:03:48;;;;;;;178.07;63.23;;;-7.80;59.10;;;;;;4972699;28;20030;-84
2021/01/17 12:06:17;;;;;;;71.47;28.73;;;-7.70;59.80;;;;;;4988436;28;20073;-84
2021/01/17 12:09:00;;;;;;;30.87;13.73;;;-7.60;59.20;;;;;;4924050;28;20136;-83
2021/01/17 12:11:48;;;;;;;;;;;-7.60;58.90;;;;;;4995105;28;20023;-84
2021/01/17 12:14:19;;;;;;;30.77;11.10;;;-7.70;58.30;;;;;;4991237;28;20351;-83
2021/01/17 12:16:56;;;;;;;27.93;11.93;;;-8.10;58.30;;;;;;4995177;28;20042;-84
2021/01/17 12:19:24;;;;;;;27.30;12.83;;;-8.20;58.90;;;;;;4993868;28;20033;-83
2021/01/17 12:21:55;;;;;;;35.20;15.07;;;-8.40;59.70;;;;;;4990836;28;20037;-83
2021/01/17 12:24:20;;;;;;;56.90;22.83;;;-8.50;60.10;;;;;;5007845;28;20027;-83
2021/01/17 12:26:47;;;;;;;38.77;14.57;;;-8.50;60.70;;;;;;4991199;28;20019;-83
2021/01/17 12:29:14;;;;;;;30.63;15.17;;;-8.60;60.50;;;;;;4991126;28;20050;-83
2021/01/17 12:31:40;;;;;;;37.60;16.27;;;-8.50;60.90;;;;;;4990233;28;20077;-83
2021/01/17 12:34:07;;;;;;;41.87;17.90;;;-8.40;61.10;;;;;;5008109;28;20056;-84
2021/01/17 12:36:33;;;;;;;38.50;17.53;;;-8.20;62.00;;;;;;4992908;28;20042;-84
2021/01/17 12:39:01;;;;;;;55.17;22.03;;;-8.10;61.30;;;;;;4987228;28;20109;-84
2021/01/17 12:41:31;;;;;;;43.07;17.83;;;-7.90;61.10;;;;;;4987183;28;20081;-84
2021/01/17 12:43:57;;;;;;;28.83;13.77;;;-8.00;60.40;;;;;;4985761;28;20084;-83